createdAt,value
2022-11-28T00:01:39.292Z,33.70
2022-11-28T00:04:07.008Z,35.53
2022-11-28T00:06:45.685Z,30.88
2022-11-28T00:09:14.683Z,28.67
2022-11-28T00:11:44.003Z,35.53
2022-11-28T00:14:11.337Z,27.15
2022-11-28T00:16:38.619Z,29.73
2022-11-28T00:19:07.260Z,30.92
2022-11-28T00:21:34.832Z,29.13
2022-11-28T00:24:02.579Z,32.00
2022-11-28T00:26:35.251Z,31.95
2022-11-28T00:29:04.404Z,29.55
2022-11-28T00:31:35.351Z,27.60
2022-11-28T00:34:03.109Z,31.73
2022-11-28T00:36:30.730Z,34.35
2022-11-28T00:38:57.920Z,32.40
2022-11-28T00:41:28.426Z,31.52
2022-11-28T00:43:55.976Z,33.20
2022-11-28T00:46:24.014Z,29.35
2022-11-28T00:48:52.254Z,33.13
2022-11-28T00:51:26.364Z,38.35
2022-11-28T00:53:56.050Z,34.92
2022-11-28T00:58:53.529Z,34.75
2022-11-28T01:01:33.876Z,42.10
2022-11-28T01:04:04.136Z,43.53
2022-11-28T01:06:45.530Z,38.80
2022-11-28T01:09:22.832Z,39.03
2022-11-28T01:11:52.827Z,44.83
2022-11-28T01:14:23.406Z,45.45
2022-11-28T01:16:51.072Z,40.65
2022-11-28T01:19:18.878Z,40.20
2022-11-28T01:21:46.252Z,34.70
2022-11-28T01:24:13.983Z,35.45
2022-11-28T01:26:42.178Z,34.75
2022-11-28T01:29:09.835Z,38.53
2022-11-28T01:31:37.571Z,33.42
2022-11-28T01:34:04.733Z,32.65
2022-11-28T01:36:31.808Z,34.95
2022-11-28T01:38:59.007Z,37.00
2022-11-28T01:41:27.806Z,40.47
2022-11-28T01:44:13.361Z,33.37
2022-11-28T01:46:41.213Z,33.60
2022-11-28T01:49:30.977Z,32.42
2022-11-28T01:52:07.050Z,30.83
2022-11-28T01:54:36.821Z,31.02
2022-11-28T01:57:14.953Z,33.83
2022-11-28T01:59:59.496Z,33.70
2022-11-28T02:02:45.214Z,32.60
2022-11-28T02:05:12.896Z,29.88
2022-11-28T02:07:43.532Z,36.65
2022-11-28T02:10:26.922Z,38.45
2022-11-28T02:13:15.821Z,35.60
2022-11-28T02:16:03.594Z,49.38
2022-11-28T02:18:52.629Z,38.45
2022-11-28T02:21:43.678Z,34.17
2022-11-28T02:24:47.861Z,34.53
2022-11-28T02:28:07.641Z,33.67
2022-11-28T02:31:18.123Z,37.45
2022-11-28T02:33:59.963Z,35.67
2022-11-28T02:36:49.808Z,37.20
2022-11-28T02:39:38.004Z,55.83
2022-11-28T02:42:38.634Z,37.33
2022-11-28T02:45:17.839Z,35.40
2022-11-28T02:47:54.931Z,34.20
2022-11-28T02:50:33.435Z,32.83
2022-11-28T02:53:08.394Z,48.88
2022-11-28T02:55:42.440Z,40.70
2022-11-28T02:58:11.685Z,39.35
2022-11-28T03:00:44.112Z,41.67
2022-11-28T03:03:39.398Z,40.90
2022-11-28T03:06:34.271Z,48.10
2022-11-28T03:09:25.569Z,47.55
2022-11-28T03:12:29.656Z,54.15
2022-11-28T03:15:08.952Z,49.00
2022-11-28T03:17:51.648Z,46.72
2022-11-28T03:20:46.990Z,46.50
2022-11-28T03:24:07.919Z,42.42
2022-11-28T03:27:05.539Z,48.35
2022-11-28T03:29:43.866Z,60.55
2022-11-28T03:32:18.371Z,59.42
2022-11-28T03:34:53.250Z,50.25
2022-11-28T03:37:26.947Z,59.90
2022-11-28T03:40:01.435Z,52.85
2022-11-28T03:42:33.743Z,62.55
2022-11-28T03:45:15.472Z,55.63
2022-11-28T03:47:47.927Z,54.22
2022-11-28T03:50:27.658Z,65.95
2022-11-28T03:55:40.278Z,60.35
2022-11-28T03:58:33.517Z,62.05
2022-11-28T04:01:18.597Z,79.57
2022-11-28T04:04:07.705Z,65.88
2022-11-28T04:06:57.604Z,64.85
2022-11-28T04:09:44.578Z,65.05
2022-11-28T04:12:28.209Z,58.95
2022-11-28T04:15:03.374Z,74.50
2022-11-28T04:17:43.442Z,63.78
2022-11-28T04:20:27.628Z,59.70
2022-11-28T04:23:03.300Z,67.05
2022-11-28T04:25:36.584Z,62.78
2022-11-28T04:28:11.916Z,50.67
2022-11-28T04:30:42.022Z,49.33
2022-11-28T04:33:12.038Z,52.25
2022-11-28T04:35:48.971Z,50.00
2022-11-28T04:38:17.123Z,56.72
2022-11-28T04:40:51.920Z,51.50
2022-11-28T04:43:34.933Z,49.70
2022-11-28T04:46:12.767Z,50.60
2022-11-28T04:48:40.464Z,53.90
2022-11-28T04:51:30.315Z,45.92
2022-11-28T04:54:16.420Z,55.30
2022-11-28T04:57:09.533Z,44.10
2022-11-28T04:59:37.408Z,49.35
2022-11-28T05:02:06.107Z,57.33
2022-11-28T05:04:36.324Z,47.60
2022-11-28T05:07:06.944Z,46.60
2022-11-28T05:09:35.043Z,43.00
2022-11-28T05:12:03.119Z,51.17
2022-11-28T05:14:30.369Z,55.28
2022-11-28T05:16:57.564Z,53.15
2022-11-28T05:19:24.688Z,50.17
2022-11-28T05:21:52.939Z,49.40
2022-11-28T05:24:22.281Z,45.88
2022-11-28T05:29:16.965Z,45.67
2022-11-28T05:31:44.348Z,41.83
2022-11-28T05:34:11.549Z,53.05
2022-11-28T05:36:38.903Z,45.53
2022-11-28T05:39:06.171Z,46.28
2022-11-28T05:41:33.746Z,54.97
2022-11-28T05:44:01.225Z,52.53
2022-11-28T05:46:29.510Z,46.15
2022-11-28T05:48:57.406Z,51.42
2022-11-28T05:51:24.917Z,48.17
2022-11-28T05:53:52.084Z,54.85
2022-11-28T05:56:22.546Z,68.90
2022-11-28T05:58:51.243Z,55.22
2022-11-28T06:01:22.939Z,57.25
2022-11-28T06:03:51.606Z,55.05
2022-11-28T06:06:22.301Z,52.88
2022-11-28T06:08:53.564Z,49.03
2022-11-28T06:11:23.671Z,47.70
2022-11-28T06:13:51.597Z,49.05
2022-11-28T06:16:22.601Z,44.65
2022-11-28T06:18:59.431Z,47.22
2022-11-28T06:21:29.328Z,51.67
2022-11-28T06:23:58.171Z,55.25
2022-11-28T06:26:28.199Z,50.83
2022-11-28T06:28:56.089Z,44.03
2022-11-28T06:31:29.781Z,39.70
2022-11-28T06:33:58.122Z,43.03
2022-11-28T06:36:26.077Z,47.63
2022-11-28T06:38:53.817Z,44.25
2022-11-28T06:41:22.318Z,39.53
2022-11-28T06:43:49.597Z,49.25
2022-11-28T06:46:20.988Z,41.25
2022-11-28T06:48:51.115Z,47.22
2022-11-28T06:51:19.706Z,46.47
2022-11-28T06:53:46.954Z,44.35
2022-11-28T06:56:18.588Z,39.67
2022-11-28T06:58:46.708Z,37.47
2022-11-28T07:01:20.255Z,38.63
2022-11-28T07:03:48.317Z,43.58
2022-11-28T07:06:18.872Z,36.25
2022-11-28T07:08:46.891Z,42.25
2022-11-28T07:11:29.061Z,33.97
2022-11-28T07:13:58.233Z,37.13
2022-11-28T07:16:32.336Z,48.13
2022-11-28T07:18:59.995Z,71.57
2022-11-28T07:21:28.676Z,53.42
2022-11-28T07:23:58.933Z,42.55
2022-11-28T07:26:26.310Z,42.90
2022-11-28T07:28:55.540Z,33.75
2022-11-28T07:31:31.330Z,39.67
2022-11-28T07:34:01.703Z,37.90
2022-11-28T07:36:29.897Z,40.20
2022-11-28T07:38:59.958Z,37.22
2022-11-28T07:41:28.267Z,44.63
2022-11-28T07:44:01.288Z,38.40
2022-11-28T07:46:30.500Z,32.92
2022-11-28T07:48:57.927Z,36.65
2022-11-28T07:51:29.249Z,35.55
2022-11-28T07:53:57.141Z,35.17
2022-11-28T07:56:50.264Z,33.28
2022-11-28T07:59:18.324Z,33.53
2022-11-28T08:01:45.623Z,33.30
2022-11-28T08:04:12.870Z,34.03
2022-11-28T08:06:41.852Z,33.67
2022-11-28T08:09:11.477Z,41.47
2022-11-28T08:11:39.404Z,29.27
2022-11-28T08:14:06.736Z,34.90
2022-11-28T08:16:34.276Z,36.92
2022-11-28T08:19:02.673Z,27.67
2022-11-28T08:21:33.030Z,23.10
2022-11-28T08:24:02.253Z,27.45
2022-11-28T08:26:32.308Z,26.65
2022-11-28T08:29:01.793Z,26.60
2022-11-28T08:31:36.634Z,22.10
2022-11-28T08:34:08.689Z,20.67
2022-11-28T08:36:36.839Z,21.67
2022-11-28T08:41:58.318Z,21.80
2022-11-28T08:44:31.735Z,24.50
2022-11-28T08:46:59.852Z,20.67
2022-11-28T08:49:27.088Z,18.65
2022-11-28T08:51:54.337Z,22.20
2022-11-28T08:54:21.497Z,20.55
2022-11-28T08:56:48.780Z,18.52
2022-11-28T08:59:16.035Z,21.13
2022-11-28T09:01:43.294Z,21.38
2022-11-28T09:04:10.557Z,23.05
2022-11-28T09:06:40.995Z,19.33
2022-11-28T09:09:08.589Z,20.13
2022-11-28T09:11:36.058Z,22.25
2022-11-28T09:14:03.328Z,20.35
2022-11-28T09:16:30.556Z,17.30
2022-11-28T09:18:58.750Z,14.75
2022-11-28T09:21:26.506Z,20.20
2022-11-28T09:23:55.780Z,21.05
2022-11-28T09:26:25.224Z,19.42
2022-11-28T09:28:54.231Z,20.25
2022-11-28T09:31:22.157Z,19.67
2022-11-28T09:33:49.503Z,19.38
2022-11-28T09:36:20.256Z,21.52
2022-11-28T09:38:48.127Z,19.45
2022-11-28T09:41:53.837Z,25.02
2022-11-28T09:44:43.939Z,19.02
2022-11-28T09:47:24.507Z,20.63
2022-11-28T09:49:57.642Z,23.88
2022-11-28T09:53:01.178Z,17.52
2022-11-28T09:55:41.846Z,19.00
2022-11-28T09:58:15.356Z,18.58
2022-11-28T10:01:12.567Z,17.27
2022-11-28T10:03:57.787Z,20.48
2022-11-28T10:06:54.171Z,21.08
2022-11-28T10:09:45.629Z,20.25
2022-11-28T10:13:10.156Z,18.55
2022-11-28T10:16:29.708Z,16.98
2022-11-28T10:21:59.404Z,21.45
2022-11-28T10:24:38.931Z,18.10
2022-11-28T10:27:06.628Z,19.80
2022-11-28T10:29:57.917Z,17.88
2022-11-28T10:32:41.156Z,19.83
2022-11-28T10:35:57.313Z,22.85
2022-11-28T10:38:27.814Z,19.42
2022-11-28T10:41:06.283Z,20.00
2022-11-28T10:43:43.661Z,25.67
2022-11-28T10:47:13.856Z,16.08
2022-11-28T10:49:50.271Z,20.98
2022-11-28T10:52:46.164Z,19.48
2022-11-28T10:55:37.471Z,24.00
2022-11-28T10:58:15.121Z,18.73
2022-11-28T11:00:45.198Z,19.42
2022-11-28T11:03:16.847Z,18.48
2022-11-28T11:05:44.447Z,19.08
2022-11-28T11:08:20.693Z,18.02
2022-11-28T11:10:59.422Z,20.23
2022-11-28T11:13:30.822Z,21.13
2022-11-28T11:16:10.178Z,18.67
2022-11-28T11:18:54.330Z,22.00
2022-11-28T11:21:27.882Z,23.83
2022-11-28T11:24:16.252Z,21.50
2022-11-28T11:26:47.751Z,24.77
2022-11-28T11:29:35.047Z,18.27
2022-11-28T11:32:05.690Z,23.20
2022-11-28T11:34:44.338Z,21.38
2022-11-28T11:37:28.503Z,24.70
2022-11-28T11:39:55.714Z,24.90
2022-11-28T11:42:26.525Z,27.50
2022-11-28T11:44:54.682Z,20.67
2022-11-28T11:47:48.283Z,19.30
2022-11-28T11:50:22.443Z,19.08
2022-11-28T11:53:14.626Z,23.63
2022-11-28T11:55:53.338Z,21.58
2022-11-28T11:58:29.699Z,15.43
2022-11-28T12:00:57.932Z,21.77
2022-11-28T12:04:03.381Z,23.42
2022-11-28T12:06:41.923Z,22.05
2022-11-28T12:09:33.401Z,24.42
2022-11-28T12:12:17.235Z,18.42
2022-11-28T12:14:47.148Z,21.42
2022-11-28T12:18:00.678Z,20.45
2022-11-28T12:20:45.690Z,19.70
2022-11-28T12:23:52.154Z,16.67
2022-11-28T12:27:06.041Z,19.00
2022-11-28T12:30:14.209Z,18.70
2022-11-28T12:33:10.073Z,26.25
2022-11-28T12:35:47.699Z,20.85
2022-11-28T12:39:00.298Z,23.40
2022-11-28T12:42:05.425Z,23.63
2022-11-28T12:44:56.660Z,20.50
2022-11-28T12:47:35.685Z,22.30
2022-11-28T12:50:31.822Z,19.52
2022-11-28T12:53:26.292Z,20.88
2022-11-28T12:56:23.874Z,19.73
2022-11-28T12:59:19.231Z,19.73
2022-11-28T13:02:10.753Z,20.90
2022-11-28T13:05:22.750Z,25.58
2022-11-28T13:08:13.961Z,21.73
2022-11-28T13:10:49.305Z,23.40
2022-11-28T13:13:57.237Z,26.80
2022-11-28T13:16:49.913Z,20.05
2022-11-28T13:19:59.229Z,19.58
2022-11-28T13:22:58.035Z,17.55
2022-11-28T13:25:27.874Z,18.80
2022-11-28T13:31:34.138Z,21.33
2022-11-28T13:34:01.887Z,25.80
2022-11-28T13:39:49.044Z,21.58
2022-11-28T13:43:03.477Z,23.23
2022-11-28T13:45:39.375Z,22.95
2022-11-28T13:49:13.045Z,23.65
2022-11-28T13:51:31.638Z,22.67
2022-11-28T13:54:18.614Z,28.08
2022-11-28T13:57:06.733Z,24.00
2022-11-28T13:59:35.188Z,28.85
2022-11-28T14:02:20.198Z,20.85
2022-11-28T14:04:48.184Z,21.73
2022-11-28T14:07:30.160Z,40.13
2022-11-28T14:10:25.141Z,25.33
2022-11-28T14:13:37.759Z,26.45
2022-11-28T14:16:21.508Z,34.00
2022-11-28T14:19:21.351Z,30.55
2022-11-28T14:21:54.038Z,36.15
2022-11-28T14:24:52.613Z,41.70
2022-11-28T14:27:31.517Z,40.50
2022-11-28T14:30:00.939Z,45.92
2022-11-28T14:35:14.531Z,39.13
2022-11-28T14:37:54.522Z,35.55
2022-11-28T14:40:56.830Z,41.80
2022-11-28T14:43:34.505Z,36.55
2022-11-28T14:46:24.351Z,35.53
2022-11-28T14:48:59.687Z,26.27
2022-11-28T14:52:23.082Z,28.75
2022-11-28T14:54:53.616Z,29.95
2022-11-28T14:57:29.835Z,30.13
2022-11-28T15:00:02.709Z,25.60
2022-11-28T15:02:52.238Z,34.28
2022-11-28T15:05:44.812Z,29.20
2022-11-28T15:08:45.099Z,29.52
2022-11-28T15:12:07.748Z,34.50
2022-11-28T15:14:37.955Z,27.73
2022-11-28T15:17:11.365Z,29.27
2022-11-28T15:19:49.076Z,37.47
2022-11-28T15:22:42.960Z,35.10
2022-11-28T15:25:34.765Z,26.27
2022-11-28T15:28:24.870Z,44.55
2022-11-28T15:30:53.941Z,30.58
2022-11-28T15:33:22.798Z,33.40
2022-11-28T15:36:17.156Z,41.78
2022-11-28T15:38:44.529Z,37.60
2022-11-28T15:41:12.091Z,30.25
2022-11-28T15:43:45.136Z,31.17
2022-11-28T15:46:33.455Z,29.23
2022-11-28T15:49:01.148Z,32.35
2022-11-28T15:51:32.332Z,40.63
2022-11-28T15:54:02.769Z,39.63
2022-11-28T15:56:30.309Z,36.28
2022-11-28T15:58:57.662Z,41.80
2022-11-28T16:01:30.090Z,42.97
2022-11-28T16:04:07.084Z,36.28
2022-11-28T16:06:38.035Z,40.15
2022-11-28T16:09:18.871Z,39.78
2022-11-28T16:11:52.459Z,37.95
2022-11-28T16:14:33.127Z,36.30
2022-11-28T16:17:18.960Z,36.88
2022-11-28T16:19:49.367Z,38.55
2022-11-28T16:22:21.841Z,34.20
2022-11-28T16:24:56.728Z,40.22
2022-11-28T16:27:38.625Z,32.53
2022-11-28T16:30:41.425Z,31.95
2022-11-28T16:33:36.589Z,39.20
2022-11-28T16:36:21.620Z,35.67
2022-11-28T16:38:52.603Z,31.77
2022-11-28T16:41:24.889Z,31.30
2022-11-28T16:44:01.473Z,30.00
2022-11-28T16:46:40.429Z,30.23
2022-11-28T16:49:47.408Z,35.55
2022-11-28T16:52:23.763Z,39.05
2022-11-28T16:54:58.356Z,37.83
2022-11-28T16:57:43.644Z,33.72
2022-11-28T17:00:11.420Z,31.05
2022-11-28T17:02:38.760Z,28.05
2022-11-28T17:05:06.442Z,27.15
2022-11-28T17:07:33.619Z,32.55
2022-11-28T17:10:00.876Z,24.30
2022-11-28T17:12:38.565Z,25.73
2022-11-28T17:15:13.643Z,27.23
2022-11-28T17:17:40.869Z,33.80
2022-11-28T17:20:09.213Z,25.38
2022-11-28T17:22:43.423Z,26.95
2022-11-28T17:25:20.064Z,25.13
2022-11-28T17:27:47.537Z,29.80
2022-11-28T17:30:17.613Z,36.28
2022-11-28T17:32:48.322Z,36.33
2022-11-28T17:35:24.261Z,46.72
2022-11-28T17:37:51.573Z,40.28
2022-11-28T17:40:35.921Z,43.33
2022-11-28T17:43:04.340Z,34.20
2022-11-28T17:45:35.367Z,27.35
2022-11-28T17:48:02.592Z,30.33
2022-11-28T17:50:30.639Z,31.55
2022-11-28T17:52:57.999Z,36.47
2022-11-28T17:55:25.539Z,34.13
2022-11-28T17:57:53.614Z,39.03
2022-11-28T18:00:21.024Z,30.08
2022-11-28T18:02:48.536Z,29.23
2022-11-28T18:05:15.893Z,40.75
2022-11-28T18:07:43.318Z,49.03
2022-11-28T18:10:12.123Z,47.90
2022-11-28T18:12:39.574Z,42.53
2022-11-28T18:15:09.968Z,45.70
2022-11-28T18:17:37.556Z,40.30
2022-11-28T18:20:06.389Z,41.33
2022-11-28T18:22:33.883Z,46.33
2022-11-28T18:25:01.119Z,58.30
2022-11-28T18:27:28.753Z,61.03
2022-11-28T18:29:55.960Z,70.93
2022-11-28T18:32:23.744Z,62.20
2022-11-28T18:34:51.074Z,64.63
2022-11-28T18:37:18.473Z,58.45
2022-11-28T18:39:46.087Z,59.72
2022-11-28T18:42:13.632Z,54.15
2022-11-28T18:44:40.791Z,92.43
2022-11-28T18:47:07.913Z,57.38
2022-11-28T18:49:36.048Z,55.78
2022-11-28T18:52:03.666Z,56.90
2022-11-28T18:54:32.499Z,56.40
2022-11-28T18:57:00.137Z,63.92
2022-11-28T18:59:28.713Z,94.87
2022-11-28T19:01:56.096Z,88.20
2022-11-28T19:04:23.656Z,72.07
2022-11-28T19:06:51.348Z,67.45
2022-11-28T19:09:21.954Z,64.53
2022-11-28T19:11:49.336Z,60.22
2022-11-28T19:14:20.645Z,73.47
2022-11-28T19:16:48.804Z,60.60
2022-11-28T19:19:17.369Z,60.33
2022-11-28T19:21:44.897Z,55.22
2022-11-28T19:24:13.558Z,52.47
2022-11-28T19:26:41.333Z,52.92
2022-11-28T19:29:08.605Z,43.22
2022-11-28T19:31:38.324Z,56.60
2022-11-28T19:34:14.389Z,70.13
2022-11-28T19:36:45.100Z,61.28
2022-11-28T19:39:17.790Z,64.03
2022-11-28T19:41:46.787Z,46.30
2022-11-28T19:44:15.176Z,62.40
2022-11-28T19:46:43.327Z,50.33
2022-11-28T19:49:19.036Z,47.95
2022-11-28T19:51:47.726Z,46.47
2022-11-28T19:54:18.970Z,47.30
2022-11-28T19:56:47.006Z,43.30
2022-11-28T19:59:14.654Z,37.30
2022-11-28T20:01:42.769Z,33.80
2022-11-28T20:04:10.298Z,46.95
2022-11-28T20:06:38.366Z,39.33
2022-11-28T20:09:09.731Z,46.25
2022-11-28T20:11:43.028Z,41.72
2022-11-28T20:14:17.668Z,38.88
2022-11-28T20:16:45.256Z,37.80
2022-11-28T20:19:14.314Z,35.97
2022-11-28T20:21:44.173Z,38.30
2022-11-28T20:24:11.708Z,37.85
2022-11-28T20:26:42.526Z,43.75
2022-11-28T20:29:14.211Z,42.45
2022-11-28T20:31:44.896Z,44.55
2022-11-28T20:34:14.493Z,42.10
2022-11-28T20:36:44.889Z,48.60
2022-11-28T20:39:13.204Z,49.35
2022-11-28T20:41:40.479Z,46.83
2022-11-28T20:44:08.740Z,48.05
2022-11-28T20:46:36.051Z,42.42
2022-11-28T20:49:06.130Z,43.05
2022-11-28T20:51:35.176Z,49.60
2022-11-28T20:54:04.491Z,40.22
2022-11-28T20:57:12.758Z,45.00
2022-11-28T20:59:27.416Z,51.75
2022-11-28T21:01:54.936Z,75.22
2022-11-28T21:04:22.302Z,57.75
2022-11-28T21:06:49.595Z,55.55
2022-11-28T21:09:19.832Z,55.70
2022-11-28T21:11:57.384Z,61.17
2022-11-28T21:14:26.084Z,56.95
2022-11-28T21:16:53.627Z,52.55
2022-11-28T21:19:20.941Z,65.13
2022-11-28T21:21:48.042Z,56.78
2022-11-28T21:24:15.355Z,46.03
2022-11-28T21:26:48.053Z,47.72
2022-11-28T21:29:19.223Z,48.60
2022-11-28T21:31:46.762Z,44.08
2022-11-28T21:34:15.872Z,51.75
2022-11-28T21:36:43.627Z,45.42
2022-11-28T21:39:18.070Z,46.20
2022-11-28T21:41:45.942Z,39.47
2022-11-28T21:44:13.160Z,26.35
2022-11-28T21:46:40.516Z,27.50
2022-11-28T21:49:07.813Z,23.20
2022-11-28T21:51:40.266Z,25.33
2022-11-28T21:54:10.070Z,28.13
2022-11-28T21:56:37.899Z,39.03
2022-11-28T21:59:05.617Z,28.33
2022-11-28T22:01:33.285Z,30.02
2022-11-28T22:04:02.907Z,27.27
2022-11-28T22:06:32.242Z,23.60
2022-11-28T22:09:08.638Z,26.25
2022-11-28T22:11:37.059Z,26.85
2022-11-28T22:14:04.426Z,24.65
2022-11-28T22:16:31.941Z,28.48
2022-11-28T22:19:00.600Z,25.00
2022-11-28T22:21:51.551Z,26.00
2022-11-28T22:24:15.767Z,28.30
2022-11-28T22:26:44.240Z,28.40
2022-11-28T22:29:12.674Z,26.33
2022-11-28T22:31:40.223Z,22.75
2022-11-28T22:34:09.486Z,24.55
2022-11-28T22:36:38.026Z,24.45
2022-11-28T22:39:05.680Z,28.50
2022-11-28T22:41:33.139Z,24.27
2022-11-28T22:44:03.302Z,21.88
2022-11-28T22:46:32.493Z,24.70
2022-11-28T22:49:00.546Z,20.50
2022-11-28T22:51:30.392Z,20.48
2022-11-28T22:54:00.592Z,18.75
2022-11-28T22:56:31.355Z,18.73
2022-11-28T22:58:59.875Z,18.48
2022-11-28T23:01:30.450Z,21.42
2022-11-28T23:03:59.051Z,22.67
2022-11-28T23:06:30.730Z,21.58
2022-11-28T23:09:00.591Z,19.85
2022-11-28T23:11:32.154Z,19.77
2022-11-28T23:14:01.147Z,20.88
2022-11-28T23:16:36.466Z,16.90
2022-11-28T23:19:15.781Z,18.60
2022-11-28T23:21:47.653Z,19.70
2022-11-28T23:24:21.298Z,26.83
2022-11-28T23:26:51.075Z,21.52
2022-11-28T23:29:18.763Z,20.52
2022-11-28T23:31:47.292Z,19.35
2022-11-28T23:34:15.170Z,18.95
2022-11-28T23:36:46.592Z,24.97
2022-11-28T23:39:19.922Z,19.50
2022-11-28T23:41:48.584Z,18.92
2022-11-28T23:44:18.273Z,20.15
2022-11-28T23:49:14.528Z,20.83
2022-11-28T23:51:41.957Z,28.92
2022-11-28T23:54:10.519Z,18.75
2022-11-28T23:56:39.803Z,19.60
2022-11-28T23:59:09.722Z,20.85
